createdAt,value
2022-12-09T00:00:17.595Z,259
2022-12-09T00:00:48.980Z,259
2022-12-09T00:01:21.007Z,259
2022-12-09T00:01:53.256Z,259
2022-12-09T00:02:25.176Z,259
2022-12-09T00:02:57.084Z,259
2022-12-09T00:03:29.330Z,259
2022-12-09T00:04:01.430Z,259
2022-12-09T00:04:33.069Z,259
2022-12-09T00:05:05.914Z,259
2022-12-09T00:05:36.939Z,259
2022-12-09T00:06:09.163Z,259
2022-12-09T00:06:40.653Z,259
2022-12-09T00:06:56.936Z,259
2022-12-09T00:07:28.681Z,259
2022-12-09T00:07:45.320Z,259
2022-12-09T00:08:16.980Z,259
2022-12-09T00:08:48.804Z,259
2022-12-09T00:09:20.740Z,259
2022-12-09T00:09:52.593Z,259
2022-12-09T00:10:25.134Z,259
2022-12-09T00:10:56.542Z,259
2022-12-09T00:11:12.629Z,259
2022-12-09T00:11:44.769Z,259
2022-12-09T00:12:28.531Z,259
2022-12-09T00:13:00.587Z,259
2022-12-09T00:13:32.450Z,259
2022-12-09T00:14:05.019Z,259
2022-12-09T00:14:36.460Z,259
2022-12-09T00:15:08.888Z,259
2022-12-09T00:15:40.465Z,259
2022-12-09T00:15:56.929Z,259
2022-12-09T00:16:40.465Z,259
2022-12-09T00:17:12.377Z,259
2022-12-09T00:17:44.728Z,259
2022-12-09T00:18:16.201Z,259
2022-12-09T00:18:48.341Z,259
2022-12-09T00:19:20.147Z,259
2022-12-09T00:19:52.256Z,259
2022-12-09T00:20:24.451Z,259
2022-12-09T00:20:56.207Z,259
2022-12-09T00:21:28.291Z,259
2022-12-09T00:22:00.481Z,259
2022-12-09T00:22:31.909Z,259
2022-12-09T00:23:05.112Z,259
2022-12-09T00:23:36.305Z,259
2022-12-09T00:24:08.118Z,259
2022-12-09T00:24:39.895Z,259
2022-12-09T00:25:12.121Z,259
2022-12-09T00:25:44.211Z,259
2022-12-09T00:26:15.949Z,259
2022-12-09T00:26:47.936Z,259
2022-12-09T00:27:19.946Z,259
2022-12-09T00:27:51.869Z,259
2022-12-09T00:28:23.914Z,259
2022-12-09T00:28:56.129Z,259
2022-12-09T00:29:11.851Z,259
2022-12-09T00:29:44.189Z,259
2022-12-09T00:30:28.303Z,259
2022-12-09T00:30:59.717Z,259
2022-12-09T00:31:31.697Z,259
2022-12-09T00:32:04.888Z,259
2022-12-09T00:32:35.878Z,259
2022-12-09T00:33:07.530Z,259
2022-12-09T00:33:39.481Z,259
2022-12-09T00:33:55.985Z,259
2022-12-09T00:34:39.671Z,259
2022-12-09T00:35:11.827Z,259
2022-12-09T00:35:43.695Z,259
2022-12-09T00:36:15.566Z,259
2022-12-09T00:36:47.708Z,259
2022-12-09T00:37:19.383Z,259
2022-12-09T00:37:51.410Z,259
2022-12-09T00:38:23.866Z,259
2022-12-09T00:38:55.658Z,259
2022-12-09T00:39:27.487Z,259
2022-12-09T00:39:59.267Z,259
2022-12-09T00:40:31.508Z,259
2022-12-09T00:41:04.524Z,259
2022-12-09T00:41:35.368Z,259
2022-12-09T00:42:07.013Z,259
2022-12-09T00:42:39.240Z,259
2022-12-09T00:42:55.736Z,259
2022-12-09T00:43:27.178Z,259
2022-12-09T00:43:43.294Z,259
2022-12-09T00:44:15.213Z,259
2022-12-09T00:44:47.018Z,259
2022-12-09T00:45:19.460Z,259
2022-12-09T00:45:51.375Z,259
2022-12-09T00:46:23.282Z,259
2022-12-09T00:46:55.517Z,259
2022-12-09T00:47:11.575Z,259
2022-12-09T00:47:43.193Z,259
2022-12-09T00:48:27.295Z,259
2022-12-09T00:48:58.830Z,259
2022-12-09T00:49:30.842Z,259
2022-12-09T00:50:04.441Z,259
2022-12-09T00:50:34.979Z,259
2022-12-09T00:51:06.740Z,259
2022-12-09T00:51:38.704Z,259
2022-12-09T00:52:10.810Z,259
2022-12-09T00:52:43.019Z,259
2022-12-09T00:53:14.751Z,259
2022-12-09T00:53:46.845Z,259
2022-12-09T00:54:18.755Z,259
2022-12-09T00:54:50.894Z,259
2022-12-09T00:55:22.933Z,259
2022-12-09T00:55:54.668Z,259
2022-12-09T00:56:10.780Z,259
2022-12-09T00:56:54.925Z,259
2022-12-09T00:57:26.650Z,259
2022-12-09T00:57:58.721Z,259
2022-12-09T00:58:30.514Z,259
2022-12-09T00:59:03.002Z,259
2022-12-09T00:59:34.639Z,265
2022-12-09T01:00:07.955Z,274
2022-12-09T01:00:38.588Z,276
2022-12-09T01:00:55.268Z,275
2022-12-09T01:01:26.708Z,275
2022-12-09T01:01:42.776Z,275
2022-12-09T01:02:14.904Z,275
2022-12-09T01:02:46.523Z,275
2022-12-09T01:03:18.637Z,275
2022-12-09T01:03:50.510Z,275
2022-12-09T01:04:22.236Z,275
2022-12-09T01:04:54.507Z,275
2022-12-09T01:05:10.795Z,275
2022-12-09T01:05:42.321Z,275
2022-12-09T01:06:26.647Z,275
2022-12-09T01:06:58.146Z,275
2022-12-09T01:07:30.069Z,275
2022-12-09T01:08:02.655Z,275
2022-12-09T01:08:36.234Z,275
2022-12-09T01:09:06.290Z,275
2022-12-09T01:09:38.491Z,275
2022-12-09T01:09:54.886Z,275
2022-12-09T01:10:38.314Z,275
2022-12-09T01:11:10.313Z,275
2022-12-09T01:11:41.813Z,275
2022-12-09T01:12:14.118Z,275
2022-12-09T01:12:45.946Z,275
2022-12-09T01:13:18.021Z,275
2022-12-09T01:13:49.957Z,275
2022-12-09T01:14:21.938Z,275
2022-12-09T01:14:54.093Z,275
2022-12-09T01:15:26.629Z,276
2022-12-09T01:15:57.956Z,276
2022-12-09T01:16:29.816Z,275
2022-12-09T01:17:02.210Z,275
2022-12-09T01:17:33.864Z,275
2022-12-09T01:18:05.778Z,275
2022-12-09T01:18:37.712Z,275
2022-12-09T01:19:09.925Z,275
2022-12-09T01:19:41.870Z,275
2022-12-09T01:20:14.250Z,275
2022-12-09T01:20:45.732Z,275
2022-12-09T01:21:17.827Z,275
2022-12-09T01:21:49.567Z,275
2022-12-09T01:22:21.435Z,275
2022-12-09T01:22:53.728Z,275
2022-12-09T01:23:25.706Z,275
2022-12-09T01:23:57.692Z,275
2022-12-09T01:24:29.556Z,275
2022-12-09T01:25:01.874Z,275
2022-12-09T01:25:33.446Z,275
2022-12-09T01:26:06.075Z,275
2022-12-09T01:26:37.232Z,275
2022-12-09T01:26:53.572Z,275
2022-12-09T01:27:37.520Z,275
2022-12-09T01:28:09.376Z,275
2022-12-09T01:28:41.479Z,275
2022-12-09T01:29:13.461Z,275
2022-12-09T01:29:45.555Z,275
2022-12-09T01:30:18.327Z,275
2022-12-09T01:30:49.525Z,275
2022-12-09T01:31:21.075Z,275
2022-12-09T01:31:53.297Z,275
2022-12-09T01:32:09.180Z,275
2022-12-09T01:32:53.423Z,275
2022-12-09T01:33:25.334Z,275
2022-12-09T01:33:56.924Z,275
2022-12-09T01:34:29.042Z,275
2022-12-09T01:35:01.451Z,279
2022-12-09T01:35:33.113Z,280
2022-12-09T01:36:05.997Z,281
2022-12-09T01:36:36.950Z,287
2022-12-09T01:37:08.865Z,293
2022-12-09T01:37:41.065Z,292
2022-12-09T01:38:13.036Z,297
2022-12-09T01:38:44.988Z,297
2022-12-09T01:39:16.848Z,296
2022-12-09T01:39:48.912Z,296
2022-12-09T01:40:20.940Z,296
2022-12-09T01:40:53.003Z,296
2022-12-09T01:41:08.805Z,296
2022-12-09T01:41:40.736Z,296
2022-12-09T01:42:25.203Z,296
2022-12-09T01:42:56.676Z,296
2022-12-09T01:43:12.935Z,295
2022-12-09T01:43:45.276Z,292
2022-12-09T01:44:28.660Z,292
2022-12-09T01:45:01.586Z,292
2022-12-09T01:45:32.816Z,292
2022-12-09T01:46:05.319Z,293
2022-12-09T01:46:36.769Z,292
2022-12-09T01:47:08.728Z,292
2022-12-09T01:47:25.017Z,284
2022-12-09T01:47:56.656Z,261
2022-12-09T01:48:40.545Z,261
2022-12-09T01:49:12.479Z,261
2022-12-09T01:49:45.164Z,261
2022-12-09T01:50:16.782Z,261
2022-12-09T01:50:48.288Z,261
2022-12-09T01:51:20.440Z,261
2022-12-09T01:51:52.375Z,261
2022-12-09T01:52:08.726Z,261
2022-12-09T01:52:52.318Z,261
2022-12-09T01:53:24.511Z,261
2022-12-09T01:53:56.492Z,261
2022-12-09T01:54:28.168Z,261
2022-12-09T01:55:00.146Z,261
2022-12-09T01:55:32.680Z,261
2022-12-09T01:56:04.923Z,261
2022-12-09T01:56:36.112Z,262
2022-12-09T01:56:52.452Z,262
2022-12-09T01:57:24.002Z,262
2022-12-09T01:57:40.170Z,262
2022-12-09T01:58:12.088Z,262
2022-12-09T01:58:44.212Z,265
2022-12-09T01:59:15.886Z,267
2022-12-09T01:59:47.998Z,267
2022-12-09T02:00:21.503Z,267
2022-12-09T02:00:52.172Z,267
2022-12-09T02:01:07.972Z,267
2022-12-09T02:01:40.491Z,267
2022-12-09T02:02:24.231Z,267
2022-12-09T02:02:56.403Z,267
2022-12-09T02:03:27.916Z,267
2022-12-09T02:04:00.125Z,267
2022-12-09T02:04:32.089Z,267
2022-12-09T02:05:05.163Z,267
2022-12-09T02:05:35.889Z,267
2022-12-09T02:05:52.285Z,267
2022-12-09T02:06:36.425Z,267
2022-12-09T02:07:07.709Z,267
2022-12-09T02:07:39.719Z,266
2022-12-09T02:08:11.679Z,266
2022-12-09T02:08:43.838Z,266
2022-12-09T02:09:16.306Z,266
2022-12-09T02:09:47.755Z,266
2022-12-09T02:10:19.906Z,266
2022-12-09T02:10:51.428Z,266
2022-12-09T02:11:23.617Z,266
2022-12-09T02:11:55.749Z,266
2022-12-09T02:12:27.375Z,266
2022-12-09T02:12:59.466Z,266
2022-12-09T02:13:31.469Z,266
2022-12-09T02:14:03.570Z,266
2022-12-09T02:14:35.639Z,266
2022-12-09T02:14:51.618Z,266
2022-12-09T02:15:23.670Z,266
2022-12-09T02:15:39.514Z,266
2022-12-09T02:16:11.379Z,266
2022-12-09T02:16:43.348Z,266
2022-12-09T02:17:15.572Z,266
2022-12-09T02:17:47.383Z,266
2022-12-09T02:18:19.203Z,266
2022-12-09T02:18:51.082Z,266
2022-12-09T02:19:07.578Z,266
2022-12-09T02:19:39.384Z,266
2022-12-09T02:20:23.717Z,266
2022-12-09T02:20:55.509Z,267
2022-12-09T02:21:27.232Z,268
2022-12-09T02:21:59.365Z,268
2022-12-09T02:22:31.064Z,267
2022-12-09T02:23:03.666Z,267
2022-12-09T02:23:35.232Z,267
2022-12-09T02:23:51.103Z,267
2022-12-09T02:24:35.420Z,267
2022-12-09T02:25:07.370Z,267
2022-12-09T02:25:38.973Z,267
2022-12-09T02:26:10.852Z,273
2022-12-09T02:26:42.810Z,274
2022-12-09T02:27:15.258Z,273
2022-12-09T02:27:46.799Z,273
2022-12-09T02:28:18.666Z,273
2022-12-09T02:28:51.111Z,273
2022-12-09T02:29:22.955Z,273
2022-12-09T02:29:55.204Z,273
2022-12-09T02:30:27.278Z,273
2022-12-09T02:30:58.779Z,273
2022-12-09T02:31:31.056Z,274
2022-12-09T02:32:03.709Z,275
2022-12-09T02:32:35.141Z,275
2022-12-09T02:33:07.096Z,275
2022-12-09T02:33:38.645Z,275
2022-12-09T02:34:11.079Z,275
2022-12-09T02:34:42.536Z,275
2022-12-09T02:35:14.986Z,276
2022-12-09T02:35:46.596Z,275
2022-12-09T02:36:18.819Z,275
2022-12-09T02:36:50.422Z,275
2022-12-09T02:37:06.801Z,274
2022-12-09T02:37:38.381Z,274
2022-12-09T02:38:22.762Z,274
2022-12-09T02:38:54.634Z,275
2022-12-09T02:39:27.190Z,274
2022-12-09T02:39:58.897Z,274
2022-12-09T02:40:30.804Z,274
2022-12-09T02:41:03.338Z,274
2022-12-09T02:41:34.634Z,275
2022-12-09T02:41:50.308Z,275
2022-12-09T02:42:34.653Z,275
2022-12-09T02:43:06.625Z,274
2022-12-09T02:43:38.114Z,274
2022-12-09T02:44:10.179Z,274
2022-12-09T02:44:42.167Z,275
2022-12-09T02:45:16.344Z,275
2022-12-09T02:45:47.028Z,275
2022-12-09T02:46:18.269Z,275
2022-12-09T02:46:50.454Z,275
2022-12-09T02:47:22.307Z,275
2022-12-09T02:47:54.636Z,275
2022-12-09T02:48:26.437Z,275
2022-12-09T02:48:57.951Z,275
2022-12-09T02:49:30.238Z,275
2022-12-09T02:50:03.711Z,275
2022-12-09T02:50:34.020Z,275
2022-12-09T02:50:50.227Z,275
2022-12-09T02:51:21.908Z,275
2022-12-09T02:51:37.922Z,275
2022-12-09T02:52:09.751Z,275
2022-12-09T02:52:41.654Z,275
2022-12-09T02:53:14.209Z,275
2022-12-09T02:53:46.712Z,275
2022-12-09T02:54:17.759Z,275
2022-12-09T02:54:49.995Z,275
2022-12-09T02:55:07.010Z,275
2022-12-09T02:55:37.607Z,275
2022-12-09T02:56:21.754Z,275
2022-12-09T02:56:53.585Z,275
2022-12-09T02:57:26.035Z,275
2022-12-09T02:57:57.718Z,275
2022-12-09T02:58:29.948Z,275
2022-12-09T02:59:01.861Z,275
2022-12-09T02:59:33.739Z,275
2022-12-09T02:59:49.560Z,275
2022-12-09T03:00:34.163Z,275
2022-12-09T03:01:06.313Z,275
2022-12-09T03:01:37.394Z,275
2022-12-09T03:02:09.813Z,275
2022-12-09T03:02:41.876Z,275
2022-12-09T03:03:13.624Z,276
2022-12-09T03:03:46.215Z,276
2022-12-09T03:04:17.573Z,275
2022-12-09T03:04:49.706Z,275
2022-12-09T03:05:21.613Z,275
2022-12-09T03:05:53.097Z,275
2022-12-09T03:06:25.593Z,275
2022-12-09T03:06:57.281Z,275
2022-12-09T03:07:29.654Z,275
2022-12-09T03:08:02.125Z,275
2022-12-09T03:08:33.368Z,275
2022-12-09T03:08:49.416Z,275
2022-12-09T03:09:21.116Z,279
2022-12-09T03:09:37.158Z,288
2022-12-09T03:10:10.022Z,286
2022-12-09T03:10:41.226Z,278
2022-12-09T03:11:13.004Z,289
2022-12-09T03:11:45.406Z,289
2022-12-09T03:12:17.343Z,288
2022-12-09T03:12:48.823Z,286
2022-12-09T03:13:05.736Z,286
2022-12-09T03:13:37.166Z,287
2022-12-09T03:14:20.918Z,287
2022-12-09T03:14:52.780Z,286
2022-12-09T03:15:25.318Z,286
2022-12-09T03:15:57.133Z,287
2022-12-09T03:16:29.063Z,291
2022-12-09T03:17:01.098Z,296
2022-12-09T03:17:32.819Z,299
2022-12-09T03:17:49.296Z,299
2022-12-09T03:18:32.939Z,302
2022-12-09T03:19:05.539Z,302
2022-12-09T03:19:36.875Z,302
2022-12-09T03:20:08.999Z,302
2022-12-09T03:20:40.843Z,302
2022-12-09T03:21:12.711Z,302
2022-12-09T03:21:44.825Z,302
2022-12-09T03:22:16.527Z,302
2022-12-09T03:22:48.536Z,302
2022-12-09T03:23:20.705Z,302
2022-12-09T03:23:52.585Z,302
2022-12-09T03:24:24.879Z,302
2022-12-09T03:24:56.762Z,302
2022-12-09T03:25:29.124Z,302
2022-12-09T03:26:00.292Z,302
2022-12-09T03:26:32.283Z,302
2022-12-09T03:26:48.548Z,302
2022-12-09T03:27:20.183Z,301
2022-12-09T03:27:36.579Z,301
2022-12-09T03:28:08.239Z,280
2022-12-09T03:28:40.210Z,280
2022-12-09T03:29:12.147Z,280
2022-12-09T03:29:44.603Z,280
2022-12-09T03:30:17.661Z,280
2022-12-09T03:30:48.319Z,280
2022-12-09T03:31:05.027Z,280
2022-12-09T03:31:36.319Z,280
2022-12-09T03:32:20.568Z,280
2022-12-09T03:32:52.491Z,281
2022-12-09T03:33:24.326Z,281
2022-12-09T03:33:56.374Z,281
2022-12-09T03:34:28.364Z,281
2022-12-09T03:34:59.967Z,281
2022-12-09T03:35:32.367Z,281
2022-12-09T03:35:48.522Z,281
2022-12-09T03:36:32.305Z,280
2022-12-09T03:37:04.653Z,280
2022-12-09T03:37:35.916Z,280
2022-12-09T03:38:07.926Z,280
2022-12-09T03:38:40.193Z,280
2022-12-09T03:39:11.875Z,280
2022-12-09T03:39:43.853Z,280
2022-12-09T03:40:17.282Z,280
2022-12-09T03:40:48.219Z,280
2022-12-09T03:41:19.846Z,280
2022-12-09T03:41:51.680Z,281
2022-12-09T03:42:23.991Z,281
2022-12-09T03:42:56.014Z,281
2022-12-09T03:43:27.808Z,281
2022-12-09T03:43:59.530Z,281
2022-12-09T03:44:31.866Z,281
2022-12-09T03:44:47.736Z,280
2022-12-09T03:45:20.200Z,281
2022-12-09T03:45:36.241Z,281
2022-12-09T03:46:07.444Z,281
2022-12-09T03:46:39.478Z,281
2022-12-09T03:47:12.028Z,281
2022-12-09T03:47:43.769Z,281
2022-12-09T03:48:16.043Z,281
2022-12-09T03:48:47.814Z,281
2022-12-09T03:49:04.285Z,281
2022-12-09T03:49:35.538Z,281
2022-12-09T03:50:19.906Z,281
2022-12-09T03:50:51.607Z,284
2022-12-09T03:51:23.383Z,284
2022-12-09T03:51:55.724Z,284
2022-12-09T03:52:27.644Z,284
2022-12-09T03:52:59.111Z,284
2022-12-09T03:53:16.109Z,284
2022-12-09T03:53:47.389Z,284
2022-12-09T03:54:04.286Z,284
2022-12-09T03:54:35.660Z,284
2022-12-09T03:55:07.611Z,284
2022-12-09T03:55:39.116Z,284
2022-12-09T03:56:11.592Z,284
2022-12-09T03:56:43.498Z,284
2022-12-09T03:57:18.720Z,284
2022-12-09T03:57:47.117Z,284
2022-12-09T03:58:19.249Z,284
2022-12-09T03:58:51.198Z,284
2022-12-09T03:59:23.280Z,284
2022-12-09T03:59:55.333Z,284
2022-12-09T04:00:29.499Z,284
2022-12-09T04:00:59.148Z,284
2022-12-09T04:01:31.203Z,284
2022-12-09T04:01:47.156Z,284
2022-12-09T04:02:18.974Z,284
2022-12-09T04:02:35.405Z,284
2022-12-09T04:03:07.018Z,284
2022-12-09T04:03:38.954Z,284
2022-12-09T04:04:11.013Z,284
2022-12-09T04:04:43.474Z,284
2022-12-09T04:05:15.733Z,284
2022-12-09T04:05:46.773Z,284
2022-12-09T04:06:03.920Z,284
2022-12-09T04:06:35.109Z,284
2022-12-09T04:07:18.822Z,284
2022-12-09T04:07:50.490Z,284
2022-12-09T04:08:07.168Z,284
2022-12-09T04:08:39.049Z,284
2022-12-09T04:09:23.206Z,284
2022-12-09T04:09:55.309Z,284
2022-12-09T04:10:26.778Z,284
2022-12-09T04:10:58.650Z,284
2022-12-09T04:11:30.921Z,284
2022-12-09T04:12:03.557Z,284
2022-12-09T04:12:34.981Z,284
2022-12-09T04:13:06.325Z,284
2022-12-09T04:13:38.908Z,284
2022-12-09T04:14:15.081Z,284
2022-12-09T04:14:42.577Z,284
2022-12-09T04:15:15.711Z,284
2022-12-09T04:15:46.352Z,284
2022-12-09T04:16:18.682Z,284
2022-12-09T04:16:50.226Z,284
2022-12-09T04:17:22.681Z,284
2022-12-09T04:17:54.913Z,284
2022-12-09T04:18:26.574Z,284
2022-12-09T04:18:58.068Z,284
2022-12-09T04:19:30.185Z,284
2022-12-09T04:19:46.696Z,284
2022-12-09T04:20:18.839Z,284
2022-12-09T04:20:34.613Z,284
2022-12-09T04:21:06.236Z,284
2022-12-09T04:21:38.111Z,284
2022-12-09T04:22:10.548Z,284
2022-12-09T04:22:42.118Z,284
2022-12-09T04:23:14.020Z,284
2022-12-09T04:23:46.316Z,284
2022-12-09T04:24:03.156Z,284
2022-12-09T04:24:34.275Z,284
2022-12-09T04:25:18.316Z,284
2022-12-09T04:25:49.933Z,284
2022-12-09T04:26:21.908Z,284
2022-12-09T04:26:53.880Z,284
2022-12-09T04:27:25.984Z,284
2022-12-09T04:27:57.707Z,284
2022-12-09T04:28:29.970Z,284
2022-12-09T04:28:46.194Z,284
2022-12-09T04:29:30.173Z,284
2022-12-09T04:30:05.648Z,284
2022-12-09T04:30:34.026Z,284
2022-12-09T04:31:06.104Z,284
2022-12-09T04:31:37.669Z,284
2022-12-09T04:32:09.718Z,284
2022-12-09T04:32:41.583Z,284
2022-12-09T04:33:13.498Z,284
2022-12-09T04:33:45.915Z,284
2022-12-09T04:34:17.623Z,284
2022-12-09T04:34:49.447Z,284
2022-12-09T04:35:21.808Z,284
2022-12-09T04:35:53.596Z,284
2022-12-09T04:36:25.738Z,284
2022-12-09T04:36:57.354Z,284
2022-12-09T04:37:29.528Z,284
2022-12-09T04:37:45.770Z,284
2022-12-09T04:38:17.370Z,284
2022-12-09T04:38:33.518Z,284
2022-12-09T04:39:05.536Z,284
2022-12-09T04:39:37.405Z,284
2022-12-09T04:40:10.073Z,284
2022-12-09T04:40:41.544Z,284
2022-12-09T04:41:13.398Z,284
2022-12-09T04:41:45.853Z,284
2022-12-09T04:42:01.961Z,284
2022-12-09T04:42:33.330Z,284
2022-12-09T04:43:17.149Z,284
2022-12-09T04:43:49.086Z,284
2022-12-09T04:44:21.406Z,284
2022-12-09T04:44:53.167Z,284
2022-12-09T04:45:25.880Z,284
2022-12-09T04:45:57.022Z,284
2022-12-09T04:46:29.119Z,284
2022-12-09T04:46:45.783Z,284
2022-12-09T04:47:29.500Z,284
2022-12-09T04:48:01.373Z,284
2022-12-09T04:48:33.059Z,284
2022-12-09T04:49:05.513Z,284
2022-12-09T04:49:36.906Z,284
2022-12-09T04:50:09.427Z,284
2022-12-09T04:50:40.774Z,284
2022-12-09T04:51:13.039Z,284
2022-12-09T04:51:45.265Z,284
2022-12-09T04:52:16.808Z,284
2022-12-09T04:52:48.921Z,284
2022-12-09T04:53:21.005Z,284
2022-12-09T04:53:52.678Z,284
2022-12-09T04:54:25.413Z,284
2022-12-09T04:54:56.569Z,284
2022-12-09T04:55:28.995Z,284
2022-12-09T04:55:45.540Z,284
2022-12-09T04:56:16.670Z,284
2022-12-09T04:56:33.109Z,284
2022-12-09T04:57:05.311Z,284
2022-12-09T04:57:36.569Z,284
2022-12-09T04:58:08.532Z,284
2022-12-09T04:58:40.669Z,284
2022-12-09T04:59:12.835Z,284
2022-12-09T04:59:44.670Z,284
2022-12-09T05:00:01.290Z,284
2022-12-09T05:00:32.309Z,284
2022-12-09T05:01:18.398Z,284
2022-12-09T05:01:48.448Z,284
2022-12-09T05:02:05.292Z,284
2022-12-09T05:02:36.463Z,284
2022-12-09T05:03:20.493Z,284
2022-12-09T05:03:52.597Z,284
2022-12-09T05:04:24.877Z,283
2022-12-09T05:04:56.763Z,284
2022-12-09T05:05:28.589Z,284
2022-12-09T05:06:00.568Z,284
2022-12-09T05:06:32.222Z,284
2022-12-09T05:07:04.833Z,284
2022-12-09T05:07:36.622Z,284
2022-12-09T05:08:08.468Z,284
2022-12-09T05:08:40.094Z,284
2022-12-09T05:09:12.365Z,284
2022-12-09T05:09:44.524Z,284
2022-12-09T05:10:17.243Z,284
2022-12-09T05:10:48.478Z,284
2022-12-09T05:11:20.549Z,284
2022-12-09T05:11:52.439Z,284
2022-12-09T05:12:24.342Z,284
2022-12-09T05:12:56.197Z,284
2022-12-09T05:13:28.010Z,284
2022-12-09T05:14:00.109Z,284
2022-12-09T05:14:32.351Z,284
2022-12-09T05:15:08.397Z,284
2022-12-09T05:15:36.337Z,284
2022-12-09T05:16:13.876Z,284
2022-12-09T05:16:39.990Z,284
2022-12-09T05:17:11.806Z,284
2022-12-09T05:17:43.851Z,284
2022-12-09T05:18:16.203Z,284
2022-12-09T05:18:48.158Z,284
2022-12-09T05:19:19.716Z,284
2022-12-09T05:19:51.991Z,284
2022-12-09T05:20:24.304Z,284
2022-12-09T05:20:56.134Z,284
2022-12-09T05:21:27.520Z,284
2022-12-09T05:21:44.072Z,284
2022-12-09T05:22:27.775Z,284
2022-12-09T05:23:02.120Z,284
2022-12-09T05:23:31.917Z,284
2022-12-09T05:24:05.165Z,284
2022-12-09T05:24:35.896Z,284
2022-12-09T05:25:07.871Z,284
2022-12-09T05:25:39.550Z,284
2022-12-09T05:26:11.455Z,284
2022-12-09T05:26:43.589Z,284
2022-12-09T05:27:15.714Z,284
2022-12-09T05:27:47.758Z,284
2022-12-09T05:28:19.536Z,284
2022-12-09T05:28:51.655Z,284
2022-12-09T05:29:23.781Z,284
2022-12-09T05:29:55.949Z,284
2022-12-09T05:30:27.679Z,284
2022-12-09T05:30:59.214Z,284
2022-12-09T05:31:15.862Z,284
2022-12-09T05:31:59.548Z,284
2022-12-09T05:32:31.588Z,284
2022-12-09T05:33:04.285Z,284
2022-12-09T05:33:35.546Z,284
2022-12-09T05:34:07.148Z,284
2022-12-09T05:34:39.580Z,284
2022-12-09T05:35:11.570Z,284
2022-12-09T05:35:27.358Z,284
2022-12-09T05:36:11.124Z,284
2022-12-09T05:36:43.264Z,284
2022-12-09T05:37:15.513Z,284
2022-12-09T05:37:46.964Z,284
2022-12-09T05:38:19.042Z,284
2022-12-09T05:38:50.845Z,284
2022-12-09T05:39:23.396Z,284
2022-12-09T05:39:55.292Z,284
2022-12-09T05:40:27.048Z,284
2022-12-09T05:40:59.044Z,284
2022-12-09T05:41:30.919Z,284
2022-12-09T05:42:03.749Z,284
2022-12-09T05:42:40.930Z,284
2022-12-09T05:43:06.758Z,284
2022-12-09T05:43:38.960Z,284
2022-12-09T05:44:10.660Z,284
2022-12-09T05:44:42.817Z,284
2022-12-09T05:45:16.728Z,284
2022-12-09T05:45:46.622Z,284
2022-12-09T05:46:19.203Z,284
2022-12-09T05:46:50.573Z,284
2022-12-09T05:47:22.713Z,284
2022-12-09T05:47:55.065Z,284
2022-12-09T05:48:26.662Z,284
2022-12-09T05:48:42.749Z,284
2022-12-09T05:49:15.260Z,284
2022-12-09T05:50:01.796Z,284
2022-12-09T05:50:31.166Z,284
2022-12-09T05:51:02.850Z,284
2022-12-09T05:51:35.150Z,284
2022-12-09T05:52:06.369Z,284
2022-12-09T05:52:38.564Z,284
2022-12-09T05:53:10.604Z,284
2022-12-09T05:53:42.270Z,284
2022-12-09T05:54:14.621Z,284
2022-12-09T05:54:47.710Z,284
2022-12-09T05:55:18.444Z,284
2022-12-09T05:55:50.590Z,284
2022-12-09T05:56:22.383Z,284
2022-12-09T05:56:54.663Z,284
2022-12-09T05:57:26.335Z,284
2022-12-09T05:57:42.218Z,284
2022-12-09T05:58:26.453Z,284
2022-12-09T05:58:58.334Z,286
2022-12-09T05:59:30.585Z,286
2022-12-09T06:00:08.043Z,285
2022-12-09T06:00:38.147Z,284
2022-12-09T06:01:10.279Z,284
2022-12-09T06:01:38.137Z,284
2022-12-09T06:02:10.402Z,284
2022-12-09T06:02:41.882Z,284
2022-12-09T06:02:58.368Z,284
2022-12-09T06:03:42.133Z,284
2022-12-09T06:04:14.663Z,284
2022-12-09T06:04:46.400Z,284
2022-12-09T06:05:18.254Z,284
2022-12-09T06:05:49.826Z,284
2022-12-09T06:06:22.912Z,284
2022-12-09T06:06:53.771Z,284
2022-12-09T06:07:26.089Z,284
2022-12-09T06:07:42.155Z,284
2022-12-09T06:08:14.093Z,284
2022-12-09T06:08:29.905Z,284
2022-12-09T06:09:01.804Z,284
2022-12-09T06:09:33.800Z,284
2022-12-09T06:10:06.909Z,284
2022-12-09T06:10:37.823Z,284
2022-12-09T06:11:09.625Z,284
2022-12-09T06:11:41.857Z,284
2022-12-09T06:11:58.158Z,284
2022-12-09T06:12:29.812Z,284
2022-12-09T06:13:13.582Z,284
2022-12-09T06:13:45.914Z,284
2022-12-09T06:14:17.441Z,284
2022-12-09T06:14:49.346Z,284
2022-12-09T06:15:23.044Z,284
2022-12-09T06:15:53.953Z,284
2022-12-09T06:16:26.029Z,284
2022-12-09T06:16:41.640Z,284
2022-12-09T06:17:25.704Z,284
2022-12-09T06:17:57.433Z,284
2022-12-09T06:18:29.698Z,284
2022-12-09T06:19:01.377Z,284
2022-12-09T06:19:33.489Z,284
2022-12-09T06:20:06.871Z,284
2022-12-09T06:20:37.030Z,284
2022-12-09T06:21:09.366Z,284
2022-12-09T06:21:41.570Z,284
2022-12-09T06:22:13.388Z,284
2022-12-09T06:22:45.253Z,284
2022-12-09T06:23:17.175Z,284
2022-12-09T06:23:49.104Z,284
2022-12-09T06:24:21.190Z,284
2022-12-09T06:24:56.953Z,284
2022-12-09T06:25:26.136Z,284
2022-12-09T06:25:57.228Z,284
2022-12-09T06:26:29.153Z,284
2022-12-09T06:27:00.846Z,284
2022-12-09T06:27:33.237Z,284
2022-12-09T06:28:06.183Z,284
2022-12-09T06:28:37.215Z,284
2022-12-09T06:29:08.750Z,284
2022-12-09T06:29:40.841Z,284
2022-12-09T06:30:13.746Z,284
2022-12-09T06:30:45.261Z,284
2022-12-09T06:31:17.226Z,284
2022-12-09T06:31:48.866Z,285
2022-12-09T06:32:21.077Z,284
2022-12-09T06:32:52.865Z,285
2022-12-09T06:33:53.130Z,284
2022-12-09T06:33:59.656Z,284
2022-12-09T06:34:29.036Z,284
2022-12-09T06:35:01.304Z,285
2022-12-09T06:35:33.018Z,285
2022-12-09T06:36:05.445Z,284
2022-12-09T06:36:36.392Z,284
2022-12-09T06:37:08.718Z,284
2022-12-09T06:37:40.488Z,284
2022-12-09T06:37:56.493Z,284
2022-12-09T06:38:40.620Z,284
2022-12-09T06:39:12.553Z,284
2022-12-09T06:39:44.928Z,284
2022-12-09T06:40:16.496Z,284
2022-12-09T06:40:48.553Z,284
2022-12-09T06:41:20.667Z,284
2022-12-09T06:41:52.291Z,284
2022-12-09T06:42:24.360Z,284
2022-12-09T06:42:56.564Z,284
2022-12-09T06:43:28.375Z,284
2022-12-09T06:44:00.236Z,284
2022-12-09T06:44:32.113Z,284
2022-12-09T06:45:07.315Z,284
2022-12-09T06:45:36.591Z,284
2022-12-09T06:46:08.363Z,284
2022-12-09T06:46:40.219Z,284
2022-12-09T06:46:56.311Z,284
2022-12-09T06:47:28.279Z,284
2022-12-09T06:48:12.466Z,284
2022-12-09T06:48:44.645Z,284
2022-12-09T06:49:16.075Z,284
2022-12-09T06:49:48.207Z,284
2022-12-09T06:50:20.511Z,284
2022-12-09T06:50:52.122Z,284
2022-12-09T06:51:24.383Z,284
2022-12-09T06:51:56.362Z,284
2022-12-09T06:52:28.202Z,284
2022-12-09T06:53:00.257Z,284
2022-12-09T06:53:31.833Z,284
2022-12-09T06:54:05.188Z,284
2022-12-09T06:54:36.028Z,284
2022-12-09T06:55:08.748Z,284
2022-12-09T06:55:39.668Z,284
2022-12-09T06:55:56.620Z,284
2022-12-09T06:56:39.875Z,284
2022-12-09T06:57:12.061Z,284
2022-12-09T06:57:43.878Z,284
2022-12-09T06:58:15.706Z,284
2022-12-09T06:58:47.681Z,284
2022-12-09T06:59:19.546Z,284
2022-12-09T06:59:51.805Z,284
2022-12-09T07:00:23.922Z,284
2022-12-09T07:00:55.907Z,284
2022-12-09T07:01:27.750Z,285
2022-12-09T07:01:59.812Z,285
2022-12-09T07:02:35.564Z,284
2022-12-09T07:03:03.874Z,284
2022-12-09T07:03:36.032Z,284
2022-12-09T07:04:07.716Z,284
2022-12-09T07:04:39.644Z,284
2022-12-09T07:04:55.708Z,284
2022-12-09T07:05:30.682Z,284
2022-12-09T07:06:11.752Z,284
2022-12-09T07:06:43.512Z,284
2022-12-09T07:07:15.907Z,284
2022-12-09T07:07:47.238Z,284
2022-12-09T07:08:19.689Z,284
2022-12-09T07:08:51.701Z,284
2022-12-09T07:09:23.120Z,284